Time;durP1;ratioP1;P1;durP2;ratioP2;P2;SDS_P1;SDS_P2;PMS_P1;PMS_P2;Temp;Humidity;BMP_temperature;BMP_pressure;BME280_temperature;BME280_humidity;BME280_pressure;Samples;Min_cycle;Max_cycle;Signal;HPM_P1;HPM_P2
2023/10/22 00:02:02;;;;;;;;;;;;;;;11.42;100;99441.2;;;;-71
2023/10/22 00:07:01;;;;;;;;;;;;;;;11.43;100;99441.04;;;;-73
2023/10/22 00:08:13;;;;;;;3.1;1.4;;;;;;;;;;;;;-73
2023/10/22 00:12:01;;;;;;;;;;;;;;;11.44;100;99446.46;;;;-73
2023/10/22 00:17:01;;;;;;;;;;;;;;;11.47;100;99445.55;;;;-74
2023/10/22 00:22:01;;;;;;;;;;;;;;;11.48;100;99451.02;;;;-71
2023/10/22 00:27:02;;;;;;;;;;;;;;;11.5;100;99450.05;;;;-72
2023/10/22 00:32:01;;;;;;;;;;;;;;;11.53;100;99445.43;;;;-72
2023/10/22 00:37:01;;;;;;;;;;;;;;;11.56;100;99440.66;;;;-73
2023/10/22 00:38:14;;;;;;;4.8;2.8;;;;;;;;;;;;;-71
2023/10/22 00:42:01;;;;;;;;;;;;;;;11.61;100;99454.66;;;;-71
2023/10/22 00:47:01;;;;;;;;;;;;;;;11.62;100;99454.92;;;;-72
2023/10/22 00:52:01;;;;;;;;;;;;;;;11.63;100;99456.2;;;;-73
2023/10/22 00:57:02;;;;;;;;;;;;;;;11.64;100;99450.01;;;;-73
2023/10/22 01:02:04;;;;;;;;;;;;;;;11.66;100;99454.23;;;;-73
2023/10/22 01:07:01;;;;;;;;;;;;;;;11.66;100;99454.47;;;;-72
2023/10/22 01:08:15;;;;;;;6.6;4.1;;;;;;;;;;;;;-72
2023/10/22 01:12:09;;;;;;;;;;;;;;;11.68;100;99457.47;;;;-72
2023/10/22 01:17:03;;;;;;;;;;;;;;;11.7;100;99460.69;;;;-73
2023/10/22 01:22:01;;;;;;;;;;;;;;;11.73;100;99461.79;;;;-72
2023/10/22 01:27:01;;;;;;;;;;;;;;;11.74;100;99457.79;;;;-73
2023/10/22 01:32:01;;;;;;;;;;;;;;;11.75;100;99456.19;;;;-73
2023/10/22 01:37:01;;;;;;;;;;;;;;;11.77;100;99458.63;;;;-74
2023/10/22 01:38:16;;;;;;;15.2;6.7;;;;;;;;;;;;;-72
2023/10/22 01:42:02;;;;;;;;;;;;;;;11.86;100;99468.84;;;;-72
2023/10/22 01:47:03;;;;;;;;;;;;;;;11.9;100;99465.55;;;;-73
2023/10/22 01:52:01;;;;;;;;;;;;;;;11.95;100;99467.28;;;;-72
2023/10/22 01:57:01;;;;;;;;;;;;;;;12.01;100;99470.3;;;;-75
2023/10/22 02:02:01;;;;;;;;;;;;;;;12.07;100;99476.81;;;;-74
2023/10/22 02:07:03;;;;;;;;;;;;;;;12.09;100;99495.61;;;;-73
2023/10/22 02:08:19;;;;;;;16.3;7.9;;;;;;;;;;;;;-74
2023/10/22 02:12:02;;;;;;;;;;;;;;;12.09;100;99497.52;;;;-73
2023/10/22 02:17:03;;;;;;;;;;;;;;;12.16;100;99508.05;;;;-73
2023/10/22 02:22:01;;;;;;;;;;;;;;;12.22;100;99529.34;;;;-72
2023/10/22 02:27:01;;;;;;;;;;;;;;;12.25;100;99538.41;;;;-72
2023/10/22 02:32:01;;;;;;;;;;;;;;;12.31;100;99549.7;;;;-71
2023/10/22 02:37:02;;;;;;;;;;;;;;;12.34;100;99558.9;;;;-72
2023/10/22 02:38:21;;;;;;;14.5;7.2;;;;;;;;;;;;;-72
2023/10/22 02:42:01;;;;;;;;;;;;;;;12.36;100;99562.81;;;;-72
2023/10/22 02:47:03;;;;;;;;;;;;;;;12.38;100;99568.61;;;;-72
2023/10/22 02:52:03;;;;;;;;;;;;;;;12.36;100;99579.53;;;;-71
2023/10/22 02:57:01;;;;;;;;;;;;;;;12.29;100;99585.41;;;;-73
2023/10/22 03:02:01;;;;;;;;;;;;;;;12.31;100;99611.73;;;;-71
2023/10/22 03:07:03;;;;;;;;;;;;;;;12.35;100;99635.94;;;;-76
2023/10/22 03:08:21;;;;;;;33.7;6.6;;;;;;;;;;;;;-77
2023/10/22 03:49:06;;;;;;;;;;;;;;;11.65;100;99800.64;;;;-90
2023/10/22 03:54:03;;;;;;;;;;;;;;;11.66;100;99825.61;;;;-90
2023/10/22 04:08:44;;;;;;;17.3;5;;;;;;;;;;;;;-93
2023/10/22 04:42:05;;;;;;;;;;;;;;;10.82;100;99940.31;;;;-77
2023/10/22 05:03:37;;;;;;;;;;;;;;;10.89;100;99984.3;;;;-77
2023/10/22 05:08:26;;;;;;;;;;;;;;;10.87;100;99994.92;;;;-77
2023/10/22 05:08:52;;;;;;;10.6;1.8;;;;;;;;;;;;;-77
2023/10/22 05:13:16;;;;;;;;;;;;;;;10.87;100;100003;;;;-75
2023/10/22 05:18:16;;;;;;;;;;;;;;;10.91;100;100016.3;;;;-76
2023/10/22 05:23:16;;;;;;;;;;;;;;;10.9;100;100024.5;;;;-76
2023/10/22 05:28:17;;;;;;;;;;;;;;;10.93;100;100035.9;;;;-76
2023/10/22 05:33:16;;;;;;;;;;;;;;;10.93;100;100046.2;;;;-76
2023/10/22 05:38:16;;;;;;;;;;;;;;;10.87;100;100058.1;;;;-76
2023/10/22 05:38:27;;;;;;;9.7;1.4;;;;;;;;;;;;;-71
2023/10/22 05:43:16;;;;;;;;;;;;;;;10.82;100;100073.8;;;;-76
2023/10/22 05:48:21;;;;;;;;;;;;;;;10.72;100;100084.4;;;;-76
2023/10/22 05:53:16;;;;;;;;;;;;;;;10.71;100;100101.9;;;;-77
2023/10/22 05:58:16;;;;;;;;;;;;;;;10.68;100;100107;;;;-75
2023/10/22 06:03:16;;;;;;;;;;;;;;;10.67;100;100124.4;;;;-76
2023/10/22 06:08:16;;;;;;;;;;;;;;;10.68;100;100136.1;;;;-75
2023/10/22 06:08:28;;;;;;;9.2;1.2;;;;;;;;;;;;;-74
2023/10/22 06:13:16;;;;;;;;;;;;;;;10.68;100;100145.1;;;;-76
2023/10/22 06:18:16;;;;;;;;;;;;;;;10.61;100;100153.1;;;;-75
2023/10/22 06:23:18;;;;;;;;;;;;;;;10.6;100;100159.6;;;;-75
2023/10/22 06:28:19;;;;;;;;;;;;;;;10.67;100;100176;;;;-75
2023/10/22 06:33:16;;;;;;;;;;;;;;;10.62;100;100187.8;;;;-76
2023/10/22 06:38:18;;;;;;;;;;;;;;;10.52;100;100200.6;;;;-76
2023/10/22 06:38:29;;;;;;;6.5;0.8;;;;;;;;;;;;;-77
2023/10/22 06:43:16;;;;;;;;;;;;;;;10.63;100;100219.2;;;;-76
2023/10/22 06:48:16;;;;;;;;;;;;;;;10.73;100;100236.2;;;;-76
2023/10/22 06:53:17;;;;;;;;;;;;;;;10.62;100;100231.4;;;;-76
2023/10/22 06:58:16;;;;;;;;;;;;;;;10.65;100;100245.1;;;;-78
2023/10/22 07:03:16;;;;;;;;;;;;;;;10.58;100;100258.3;;;;-76
2023/10/22 07:08:18;;;;;;;;;;;;;;;10.49;100;100270.5;;;;-76
2023/10/22 07:08:30;;;;;;;4;1;;;;;;;;;;;;;-76
2023/10/22 07:13:18;;;;;;;;;;;;;;;10.46;100;100273.8;;;;-76
2023/10/22 07:18:21;;;;;;;;;;;;;;;10.37;100;100287.7;;;;-77
2023/10/22 07:23:16;;;;;;;;;;;;;;;10.52;100;100300.8;;;;-78
2023/10/22 07:28:19;;;;;;;;;;;;;;;10.71;100;100310.5;;;;-80
2023/10/22 07:33:28;;;;;;;;;;;;;;;;;;;;;
2023/10/22 07:38:23;;;;;;;;;;;;;;;10.85;100;100325.1;;;;-75
2023/10/22 07:39:12;;;;;;;4.6;0.8;;;;;;;;;;;;;-75
2023/10/22 07:43:19;;;;;;;;;;;;;;;10.75;100;100332.1;;;;-76
2023/10/22 07:48:16;;;;;;;;;;;;;;;10.68;100;100336.1;;;;-77
2023/10/22 07:53:17;;;;;;;;;;;;;;;10.84;100;100341.7;;;;-77
2023/10/22 07:58:16;;;;;;;;;;;;;;;11.14;100;100343;;;;-75
2023/10/22 08:03:16;;;;;;;;;;;;;;;11.55;100;100365.6;;;;-77
2023/10/22 08:08:16;;;;;;;;;;;;;;;11.98;95.25391;100380;;;;-77
2023/10/22 08:08:35;;;;;;;4.7;1;;;;;;;;;;;;;-75
2023/10/22 08:13:16;;;;;;;;;;;;;;;12.08;92.30273;100379.7;;;;-77
2023/10/22 08:18:18;;;;;;;;;;;;;;;12.1;93.7334;100391.3;;;;-76
2023/10/22 08:23:16;;;;;;;;;;;;;;;12.12;90.23145;100395.7;;;;-77
2023/10/22 08:28:20;;;;;;;;;;;;;;;12.15;86.80273;100402.6;;;;-77
2023/10/22 08:33:16;;;;;;;;;;;;;;;11.94;87.4707;100407.6;;;;-77
2023/10/22 08:38:25;;;;;;;;;;;;;;;11.89;86.16504;100406.8;;;;-77
2023/10/22 08:39:07;;;;;;;;;;;;;;;;;;;;;
2023/10/22 08:43:38;;;;;;;;;;;;;;;11.81;85.18555;100420.4;;;;-77
2023/10/22 08:48:34;;;;;;;;;;;;;;;11.81;84.35449;100426.5;;;;-77
2023/10/22 08:53:36;;;;;;;;;;;;;;;11.98;84.92871;100433.6;;;;-76
2023/10/22 09:03:39;;;;;;;;;;;;;;;11.97;90.01172;100445.4;;;;-77
2023/10/22 09:08:16;;;;;;;;;;;;;;;11.91;91.32422;100453.3;;;;-75
2023/10/22 09:08:47;;;;;;;3.5;1;;;;;;;;;;;;;-77
2023/10/22 09:13:22;;;;;;;;;;;;;;;11.95;93.83301;100459.2;;;;-76
2023/10/22 09:18:23;;;;;;;;;;;;;;;12.1;94.30859;100471.1;;;;-78
2023/10/22 09:23:23;;;;;;;;;;;;;;;12.28;97.2666;100476.7;;;;-76
2023/10/22 09:28:21;;;;;;;;;;;;;;;12.26;98.56445;100481.5;;;;-80
2023/10/22 09:33:19;;;;;;;;;;;;;;;12.49;98.26367;100484.2;;;;-76
2023/10/22 09:38:16;;;;;;;;;;;;;;;12.76;96.97461;100483.8;;;;-76
2023/10/22 09:38:50;;;;;;;8.2;1.1;;;;;;;;;;;;;-76
2023/10/22 09:43:17;;;;;;;;;;;;;;;13;95.27734;100493;;;;-77
2023/10/22 09:48:18;;;;;;;;;;;;;;;12.92;93.50879;100500.1;;;;-76
2023/10/22 09:53:19;;;;;;;;;;;;;;;12.73;97.38672;100499;;;;-77
2023/10/22 09:58:19;;;;;;;;;;;;;;;12.7;98.79688;100515.1;;;;-77
2023/10/22 10:03:16;;;;;;;;;;;;;;;12.76;98.50098;100507.5;;;;-75
2023/10/22 10:08:16;;;;;;;;;;;;;;;12.94;98.83887;100507.1;;;;-77
2023/10/22 10:08:40;;;;;;;5.1;1.2;;;;;;;;;;;;;-75
2023/10/22 10:13:23;;;;;;;;;;;;;;;13.2;98.24414;100515.3;;;;-76
2023/10/22 10:18:16;;;;;;;;;;;;;;;13.36;96.15332;100530;;;;-77
2023/10/22 10:23:19;;;;;;;;;;;;;;;13.47;92.63867;100539.2;;;;-77
2023/10/22 10:28:16;;;;;;;;;;;;;;;13.35;90.29297;100540;;;;-78
2023/10/22 10:33:24;;;;;;;;;;;;;;;13.27;89.20117;100555.5;;;;-77
2023/10/22 10:38:43;;;;;;;4.8;2;;;;;;;;;;;;;-76
2023/10/22 10:43:06;;;;;;;;;;;;;;;13.33;87.84766;100563.6;;;;-77
2023/10/22 10:47:58;;;;;;;;;;;;;;;13.66;83.86328;100573.5;;;;-77
2023/10/22 10:53:05;;;;;;;;;;;;;;;13.62;87.61523;100575.4;;;;-76
2023/10/22 10:58:01;;;;;;;;;;;;;;;13.77;91.94727;100578.7;;;;-78
2023/10/22 11:06:04;;;;;;;;;;;;;;;14.04;90.06934;100563.2;;;;-77
2023/10/22 11:08:59;;;;;;;7.2;1.6;;;;;;;;;;;;;-79
2023/10/22 11:11:16;;;;;;;;;;;;;;;14.1;90.0918;100574.5;;;;-79
2023/10/22 11:16:09;;;;;;;;;;;;;;;14.04;87.5752;100572.3;;;;-78
2023/10/22 11:21:04;;;;;;;;;;;;;;;13.92;88.91992;100576.9;;;;-77
2023/10/22 11:26:11;;;;;;;;;;;;;;;13.7;92.00977;100580.6;;;;-79
2023/10/22 11:31:11;;;;;;;;;;;;;;;13.66;92.90137;100591.5;;;;-79
2023/10/22 11:35:58;;;;;;;;;;;;;;;13.77;93.21289;100592;;;;-79
2023/10/22 11:38:50;;;;;;;4.9;1.7;;;;;;;;;;;;;-79
2023/10/22 11:41:04;;;;;;;;;;;;;;;13.61;94.91895;100600.9;;;;-77
2023/10/22 11:46:08;;;;;;;;;;;;;;;;;;;;;
2023/10/22 11:56:05;;;;;;;;;;;;;;;13.85;90.81738;100617.9;;;;-80
2023/10/22 12:01:04;;;;;;;;;;;;;;;13.82;90.41211;100627.3;;;;-79
2023/10/22 12:06:09;;;;;;;;;;;;;;;13.72;83.80664;100636.4;;;;-78
2023/10/22 12:12:50;;;;;;;;;;;;;;;14.31;83.79688;100637.8;;;;-75
2023/10/22 12:17:47;;;;;;;;;;;;;;;14.73;81.36621;100645;;;;-77
2023/10/22 12:22:47;;;;;;;;;;;;;;;14.75;77.72363;100649.8;;;;-77
2023/10/22 12:27:47;;;;;;;;;;;;;;;14.37;76.33887;100656.7;;;;-76
2023/10/22 12:32:48;;;;;;;;;;;;;;;14.22;78.51367;100662.3;;;;-77
2023/10/22 12:37:47;;;;;;;;;;;;;;;14.07;80.84082;100671.3;;;;-80
2023/10/22 12:38:50;;;;;;;3.8;0.9;;;;;;;;;;;;;-76
2023/10/22 12:42:47;;;;;;;;;;;;;;;13.98;81.19336;100683.4;;;;-77
2023/10/22 12:47:47;;;;;;;;;;;;;;;13.98;79.50781;100688.4;;;;-76
2023/10/22 12:52:47;;;;;;;;;;;;;;;14.12;77.61426;100694.3;;;;-76
2023/10/22 12:57:47;;;;;;;;;;;;;;;14.32;76.78906;100700;;;;-75
2023/10/22 13:02:48;;;;;;;;;;;;;;;14.2;75.46191;100702.8;;;;-76
2023/10/22 13:07:47;;;;;;;;;;;;;;;14.3;72.70605;100711;;;;-76
2023/10/22 13:08:47;;;;;;;2.4;0.6;;;;;;;;;;;;;-77
2023/10/22 13:12:48;;;;;;;;;;;;;;;14.62;68.02051;100716;;;;-75
2023/10/22 13:17:47;;;;;;;;;;;;;;;14.68;70.80762;100724.6;;;;-76
2023/10/22 13:22:47;;;;;;;;;;;;;;;14.41;69.49902;100732.3;;;;-77
2023/10/22 13:27:47;;;;;;;;;;;;;;;14.19;70.49512;100727.3;;;;-76
2023/10/22 13:32:47;;;;;;;;;;;;;;;14.03;70.7373;100731.7;;;;-78
2023/10/22 13:37:47;;;;;;;;;;;;;;;14.06;71.87305;100734.1;;;;-76
2023/10/22 13:38:49;;;;;;;3.4;0.5;;;;;;;;;;;;;-75
2023/10/22 13:42:47;;;;;;;;;;;;;;;13.9;72.91797;100739.9;;;;-75
2023/10/22 13:47:47;;;;;;;;;;;;;;;14.07;74.15332;100739.5;;;;-76
2023/10/22 13:52:47;;;;;;;;;;;;;;;14.15;76.33691;100745.3;;;;-77
2023/10/22 13:57:47;;;;;;;;;;;;;;;14.42;75.36523;100754.9;;;;-78
2023/10/22 14:02:47;;;;;;;;;;;;;;;14.61;74.5127;100761.6;;;;-76
2023/10/22 14:07:49;;;;;;;;;;;;;;;14.42;74.88477;100771.1;;;;-75
2023/10/22 14:08:50;;;;;;;4;1.2;;;;;;;;;;;;;-75
2023/10/22 14:12:47;;;;;;;;;;;;;;;14.51;75.38086;100777.3;;;;-77
2023/10/22 14:17:49;;;;;;;;;;;;;;;14.53;73.78418;100773.4;;;;-76
2023/10/22 14:22:47;;;;;;;;;;;;;;;14.68;74.7168;100786.5;;;;-76
2023/10/22 14:27:48;;;;;;;;;;;;;;;14.35;74.81641;100783.8;;;;-75
2023/10/22 14:32:47;;;;;;;;;;;;;;;14.41;74.84766;100784.7;;;;-76
2023/10/22 14:37:48;;;;;;;;;;;;;;;14.3;76.19238;100798.4;;;;-76
2023/10/22 14:38:52;;;;;;;5.7;1.8;;;;;;;;;;;;;-76
2023/10/22 14:42:47;;;;;;;;;;;;;;;14.26;76.62207;100802.8;;;;-77
2023/10/22 14:47:47;;;;;;;;;;;;;;;14.24;77.87109;100800.3;;;;-76
2023/10/22 14:52:47;;;;;;;;;;;;;;;14.03;76.56055;100812.7;;;;-77
2023/10/22 14:57:47;;;;;;;;;;;;;;;14.11;77.08789;100814;;;;-77
2023/10/22 15:02:48;;;;;;;;;;;;;;;14.03;76.45801;100824;;;;-78
2023/10/22 15:07:52;;;;;;;;;;;;;;;13.87;77.12305;100833.1;;;;-76
2023/10/22 15:39:32;;;;;;;3.7;0.9;;;;;;;;;;;;;-80
2023/10/22 16:21:37;;;;;;;;;;;;;;;11.88;86.24902;100902.8;;;;-76
2023/10/22 16:26:36;;;;;;;;;;;;;;;11.71;87.57813;100909.8;;;;-76
2023/10/22 16:31:37;;;;;;;;;;;;;;;11.55;88.97461;100914.8;;;;-75
2023/10/22 16:36:35;;;;;;;;;;;;;;;11.38;90.3877;100918.1;;;;-77
2023/10/22 16:39:00;;;;;;;14.9;6.3;;;;;;;;;;;;;-76
2023/10/22 16:41:40;;;;;;;;;;;;;;;11.25;91.43262;100922.7;;;;-75
2023/10/22 16:46:37;;;;;;;;;;;;;;;11.13;92.67578;100929.9;;;;-77
2023/10/22 16:51:41;;;;;;;;;;;;;;;11.05;93.55273;100935.1;;;;-78
2023/10/22 17:09:23;;;;;;;7;1.6;;;;;;;;;;;;;-79
2023/10/22 17:11:51;;;;;;;;;;;;;;;10.51;95.70703;100948.1;;;;-78
2023/10/22 17:17:00;;;;;;;;;;;;;;;10.43;96.08789;100960.2;;;;-79
2023/10/22 17:31:45;;;;;;;;;;;;;;;10.19;97.58691;100975.4;;;;-77
2023/10/22 17:36:36;;;;;;;;;;;;;;;10.16;98.05176;100985.4;;;;-78
2023/10/22 17:41:56;;;;;;;;;;;;;;;10.08;99.23145;100992.6;;;;-76
2023/10/22 18:24:59;;;;;;;;;;;;;;;9.71;100;101038.1;;;;-75
2023/10/22 18:29:46;;;;;;;;;;;;;;;9.63;100;101036.6;;;;-75
2023/10/22 18:38:39;;;;;;;;;;;;;;;;;;;;;
2023/10/22 18:43:54;;;;;;;;;;;;;;;9.61;100;101050;;;;-78
2023/10/22 19:09:30;;;;;;;;;;;;;;;;;;;;;
2023/10/22 19:20:10;;;;;;;;;;;;;;;9.36;100;101096.2;;;;-75
2023/10/22 19:25:06;;;;;;;;;;;;;;;9.35;100;101096;;;;-75
2023/10/22 19:34:52;;;;;;;;;;;;;;;9.3;100;101104.7;;;;-73
2023/10/22 19:39:08;;;;;;;9.5;3.7;;;;;;;;;;;;;-75
2023/10/22 19:39:51;;;;;;;;;;;;;;;9.29;100;101106.1;;;;-75
2023/10/22 19:45:03;;;;;;;;;;;;;;;9.29;100;101108.1;;;;-75
2023/10/22 19:49:53;;;;;;;;;;;;;;;9.17;100;101111.4;;;;-73
2023/10/22 19:54:53;;;;;;;;;;;;;;;9.01;100;101117.7;;;;-73
2023/10/22 19:59:57;;;;;;;;;;;;;;;8.86;100;101118.9;;;;-74
2023/10/22 20:04:51;;;;;;;;;;;;;;;8.68;100;101123.8;;;;-75
2023/10/22 20:39:26;;;;;;;16.6;6.5;;;;;;;;;;;;;-80
2023/10/22 22:01:54;;;;;;;;;;;;;;;7.63;100;101182.4;;;;-74
2023/10/22 22:09:39;;;;;;;11.3;6;;;;;;;;;;;;;-77
2023/10/22 22:37:21;;;;;;;;;;;;;;;7.28;100;101212.9;;;;-76
2023/10/22 23:13:31;;;;;;;;;;;;;;;7.35;100;101236.4;;;;-76
